Weather at Hamburg Helmut Schmidt Airport

Public forecast

Using degrees Celsius for public forecast. Weather courtesy of forecast.io.

Current aviation weather report (METAR) for Hamburg Helmut Schmidt Airport

Report is more than 6 hours old.

2022/11/14 15:20 (retrieved 2 years ago)

EDDH 141520Z AUTO 11008KT CAVOK 08/06 Q1014 NOSIG

Aviation forecast (TAF) for Hamburg Helmut Schmidt Airport

Forecast is more than 12 hours old.

2023/02/22 18:27 (retrieved 1 year ago)

TAF EDDH 221700Z 2218/2324 13007KT 9999 SCT025 BECMG 2222/2301 VRB03KT BKN008 TEMPO 2302/2310 3500 -RA BR BKN004 BECMG 2308/2310 28008KT BKN012 TEMPO 2310/2315 BKN007 BECMG 2315/2317 SCT015